createdAt,value
2022-10-07T00:04:47.309Z,281.50
2022-10-07T00:09:41.835Z,276.38
2022-10-07T00:14:43.497Z,247.88
2022-10-07T00:19:37.807Z,263.85
2022-10-07T00:24:32.881Z,257.85
2022-10-07T00:29:25.825Z,239.15
2022-10-07T00:34:19.718Z,236.77
2022-10-07T00:39:15.538Z,223.77
2022-10-07T00:44:32.820Z,232.63
2022-10-07T00:49:28.783Z,222.23
2022-10-07T00:54:26.686Z,212.75
2022-10-07T00:59:22.572Z,205.02
2022-10-07T01:04:15.970Z,194.55
2022-10-07T01:09:12.002Z,176.32
2022-10-07T01:14:20.198Z,199.18
2022-10-07T01:19:28.121Z,187.90
2022-10-07T01:24:41.018Z,168.68
2022-10-07T01:30:01.871Z,176.57
2022-10-07T01:34:55.961Z,157.63
2022-10-07T01:39:57.107Z,164.70
2022-10-07T01:44:54.026Z,159.80
2022-10-07T01:49:47.100Z,152.93
2022-10-07T01:54:52.256Z,154.15
2022-10-07T02:00:08.666Z,148.93
2022-10-07T02:05:07.977Z,142.10
2022-10-07T02:10:08.476Z,139.75
2022-10-07T02:15:08.437Z,131.23
2022-10-07T02:20:04.093Z,136.55
2022-10-07T02:25:00.057Z,142.88
2022-10-07T02:30:00.471Z,124.18
2022-10-07T02:35:06.072Z,123.45
2022-10-07T02:39:59.317Z,124.53
2022-10-07T02:45:08.343Z,118.05
2022-10-07T02:50:07.746Z,111.03
2022-10-07T02:55:07.020Z,111.70
2022-10-07T03:00:06.178Z,107.85
2022-10-07T03:05:09.786Z,111.18
2022-10-07T03:10:04.962Z,106.20
2022-10-07T03:15:02.132Z,95.38
2022-10-07T03:19:55.567Z,98.03
2022-10-07T03:24:51.340Z,93.03
2022-10-07T03:29:45.304Z,94.47
2022-10-07T03:34:39.861Z,97.47
2022-10-07T03:39:33.718Z,88.00
2022-10-07T03:44:27.415Z,86.63
2022-10-07T03:49:21.852Z,83.57
2022-10-07T03:54:16.376Z,83.38
2022-10-07T03:59:09.267Z,81.47
2022-10-07T04:04:01.753Z,84.63
2022-10-07T04:09:00.212Z,80.97
2022-10-07T04:13:53.721Z,81.22
2022-10-07T04:18:49.525Z,71.00
2022-10-07T04:23:43.048Z,77.13
2022-10-07T04:28:37.848Z,78.18
2022-10-07T04:33:35.625Z,74.22
2022-10-07T04:38:28.662Z,71.75
2022-10-07T04:43:28.436Z,65.38
2022-10-07T04:48:29.049Z,62.60
2022-10-07T04:53:22.369Z,67.13
2022-10-07T04:58:17.482Z,67.85
2022-10-07T05:03:11.925Z,59.25
2022-10-07T05:08:04.891Z,51.58
2022-10-07T05:12:58.316Z,53.17
2022-10-07T05:17:53.811Z,45.63
2022-10-07T05:22:47.991Z,39.55
2022-10-07T05:27:42.068Z,47.97
2022-10-07T05:32:35.945Z,37.88
2022-10-07T05:37:30.137Z,37.08
2022-10-07T05:42:23.863Z,33.05
2022-10-07T05:47:21.631Z,39.78
2022-10-07T05:52:15.789Z,37.75
2022-10-07T05:57:11.573Z,33.65
2022-10-07T06:02:05.837Z,34.75
2022-10-07T06:07:00.243Z,30.80
2022-10-07T06:12:13.125Z,41.15
2022-10-07T06:17:07.412Z,28.75
2022-10-07T06:22:01.429Z,25.65
2022-10-07T06:26:56.821Z,27.17
2022-10-07T06:31:51.327Z,25.85
2022-10-07T06:36:44.309Z,22.10
2022-10-07T06:41:37.055Z,27.05
2022-10-07T06:46:47.963Z,25.95
2022-10-07T06:51:41.850Z,23.52
2022-10-07T06:56:36.149Z,34.65
2022-10-07T07:01:29.607Z,40.15
2022-10-07T07:06:24.015Z,25.92
2022-10-07T07:11:36.958Z,26.50
2022-10-07T07:16:37.429Z,29.08
2022-10-07T07:21:31.743Z,35.70
2022-10-07T07:26:26.034Z,38.22
2022-10-07T07:31:19.302Z,40.38
2022-10-07T07:36:18.522Z,44.63
2022-10-07T07:41:14.144Z,39.20
2022-10-07T07:46:07.879Z,36.42
2022-10-07T07:51:01.401Z,36.88
2022-10-07T07:55:58.901Z,31.02
2022-10-07T08:01:03.542Z,39.80
2022-10-07T08:05:57.269Z,35.80
2022-10-07T08:10:54.713Z,30.50
2022-10-07T08:15:48.830Z,29.65
2022-10-07T08:20:42.736Z,28.40
2022-10-07T08:25:36.247Z,28.95
2022-10-07T08:30:33.780Z,30.95
2022-10-07T08:35:27.645Z,30.23
2022-10-07T08:40:21.527Z,31.55
2022-10-07T08:45:28.015Z,32.00
2022-10-07T08:50:34.969Z,29.95
2022-10-07T08:55:40.884Z,29.75
2022-10-07T09:00:50.665Z,28.20
2022-10-07T09:05:47.490Z,31.58
2022-10-07T09:10:51.699Z,35.05
2022-10-07T09:15:53.534Z,36.25
2022-10-07T09:20:54.316Z,30.17
2022-10-07T09:25:48.975Z,30.48
2022-10-07T09:30:43.129Z,36.97
2022-10-07T09:35:38.644Z,64.35
2022-10-07T09:41:17.506Z,46.70
2022-10-07T09:46:48.578Z,45.92
2022-10-07T09:51:42.518Z,46.28
2022-10-07T09:56:42.137Z,44.90
2022-10-07T10:01:36.379Z,41.90
2022-10-07T10:06:30.366Z,47.17
2022-10-07T10:11:26.742Z,46.58
2022-10-07T10:16:41.191Z,53.78
2022-10-07T10:21:37.172Z,61.72
2022-10-07T10:26:56.420Z,56.85
2022-10-07T10:32:01.839Z,66.70
2022-10-07T10:37:04.088Z,70.47
2022-10-07T10:42:02.760Z,71.18
2022-10-07T10:47:26.421Z,70.13
2022-10-07T10:52:46.339Z,75.43
2022-10-07T10:58:01.502Z,75.50
2022-10-07T11:03:26.678Z,52.53
2022-10-07T11:08:37.808Z,48.38
2022-10-07T11:13:32.759Z,41.38
2022-10-07T11:18:55.574Z,33.72
2022-10-07T11:24:02.552Z,29.40
2022-10-07T11:29:16.945Z,23.67
2022-10-07T11:34:44.395Z,33.05
2022-10-07T11:39:41.492Z,27.25
2022-10-07T11:44:42.561Z,42.65
2022-10-07T11:50:03.988Z,39.63
2022-10-07T11:55:23.194Z,26.75
2022-10-07T12:00:32.884Z,26.67
2022-10-07T12:05:34.681Z,22.43
2022-10-07T12:10:33.655Z,18.52
2022-10-07T12:15:41.209Z,22.85
2022-10-07T12:20:59.386Z,22.35
2022-10-07T12:25:59.996Z,28.23
2022-10-07T12:35:54.006Z,23.52
2022-10-07T12:41:03.233Z,33.45
2022-10-07T12:45:57.489Z,34.50
2022-10-07T12:50:53.597Z,33.38
2022-10-07T12:55:53.432Z,39.10
2022-10-07T13:01:25.390Z,34.78
2022-10-07T13:06:25.017Z,29.13
2022-10-07T13:11:59.901Z,42.92
2022-10-07T13:17:21.045Z,57.67
2022-10-07T13:22:17.661Z,52.75
2022-10-07T13:27:10.491Z,53.35
2022-10-07T13:32:33.027Z,40.25
2022-10-07T13:37:41.761Z,35.85
2022-10-07T13:42:36.149Z,35.38
2022-10-07T13:47:34.049Z,34.75
2022-10-07T13:52:45.324Z,39.25
2022-10-07T13:57:44.026Z,37.90
2022-10-07T14:02:40.248Z,31.08
2022-10-07T14:07:33.337Z,59.33
2022-10-07T14:12:32.539Z,44.55
2022-10-07T14:17:31.237Z,38.92
2022-10-07T14:22:46.911Z,30.90
2022-10-07T14:28:08.505Z,34.33
2022-10-07T14:33:33.013Z,43.28
2022-10-07T14:38:28.292Z,41.00
2022-10-07T14:43:21.661Z,44.25
2022-10-07T14:48:16.051Z,46.42
2022-10-07T14:53:16.635Z,35.17
2022-10-07T14:58:12.305Z,31.15
2022-10-07T15:03:06.838Z,18.38
2022-10-07T15:08:01.383Z,17.77
2022-10-07T15:12:56.924Z,19.92
2022-10-07T15:17:49.903Z,17.45
2022-10-07T15:22:44.728Z,10.98
2022-10-07T15:27:42.390Z,12.98
2022-10-07T15:32:35.545Z,11.02
2022-10-07T15:37:29.158Z,11.00
2022-10-07T15:42:25.304Z,12.63
2022-10-07T15:47:19.294Z,7.57
2022-10-07T15:52:13.178Z,10.43
2022-10-07T15:57:11.584Z,11.23
2022-10-07T16:02:10.324Z,8.73
2022-10-07T16:07:09.884Z,16.05
2022-10-07T16:12:02.841Z,9.93
2022-10-07T16:16:58.108Z,9.48
2022-10-07T16:21:51.347Z,8.27
2022-10-07T16:26:46.195Z,11.50
2022-10-07T16:31:46.199Z,13.30
2022-10-07T16:36:45.394Z,15.57
2022-10-07T16:41:42.023Z,13.80
2022-10-07T16:46:35.447Z,11.77
2022-10-07T16:51:31.512Z,13.60
2022-10-07T16:56:25.335Z,10.63
2022-10-07T17:01:19.179Z,14.38
2022-10-07T17:06:19.225Z,14.80
2022-10-07T17:16:22.610Z,20.42
2022-10-07T17:21:16.821Z,19.40
2022-10-07T17:26:10.676Z,15.45
2022-10-07T17:31:07.328Z,16.17
2022-10-07T17:36:06.943Z,12.18
2022-10-07T17:41:01.603Z,18.90
2022-10-07T17:45:56.246Z,15.00
2022-10-07T17:50:54.135Z,15.98
2022-10-07T17:56:10.403Z,18.55
2022-10-07T18:01:10.337Z,19.67
2022-10-07T18:06:10.391Z,12.43
2022-10-07T18:11:04.954Z,15.00
2022-10-07T18:16:02.848Z,12.30
2022-10-07T18:21:00.693Z,9.30
2022-10-07T18:25:55.060Z,14.93
2022-10-07T18:30:51.348Z,9.55
2022-10-07T18:35:44.823Z,12.13
2022-10-07T18:40:38.548Z,16.55
2022-10-07T18:45:32.670Z,12.02
2022-10-07T18:50:33.334Z,13.82
2022-10-07T18:55:28.120Z,12.63
2022-10-07T19:00:22.557Z,13.63
2022-10-07T19:05:15.652Z,13.48
2022-10-07T19:10:11.005Z,13.38
2022-10-07T19:15:05.499Z,12.43
2022-10-07T19:20:02.475Z,10.88
2022-10-07T19:25:14.883Z,18.15
2022-10-07T19:30:11.476Z,44.97
2022-10-07T19:35:05.196Z,34.63
2022-10-07T19:39:58.872Z,31.00
2022-10-07T19:44:51.743Z,26.23
2022-10-07T19:49:46.036Z,27.65
2022-10-07T19:54:45.163Z,20.65
2022-10-07T19:59:38.700Z,20.47
2022-10-07T20:04:31.833Z,34.10
2022-10-07T20:09:25.366Z,53.42
2022-10-07T20:14:20.528Z,74.32
2022-10-07T20:19:16.897Z,59.17
2022-10-07T20:24:13.080Z,56.00
2022-10-07T20:29:07.807Z,48.28
2022-10-07T20:34:03.575Z,51.53
2022-10-07T20:39:21.263Z,49.55
2022-10-07T20:44:18.321Z,47.28
2022-10-07T20:49:26.406Z,49.15
2022-10-07T20:54:25.852Z,54.50
2022-10-07T20:59:27.013Z,46.35
2022-10-07T21:04:29.217Z,44.13
2022-10-07T21:14:20.609Z,41.85
2022-10-07T21:19:18.586Z,35.47
2022-10-07T21:24:21.215Z,38.45
2022-10-07T21:29:17.607Z,33.95
2022-10-07T21:34:14.742Z,36.08
2022-10-07T21:39:14.383Z,37.28
2022-10-07T21:44:17.186Z,31.48
2022-10-07T21:49:16.312Z,34.50
2022-10-07T21:54:15.866Z,32.55
2022-10-07T21:59:14.456Z,26.23
2022-10-07T22:04:21.702Z,29.73
2022-10-07T22:09:24.115Z,29.08
2022-10-07T22:14:24.582Z,32.03
2022-10-07T22:19:20.694Z,31.13
2022-10-07T22:24:21.029Z,27.73
2022-10-07T22:29:23.408Z,27.90
2022-10-07T22:34:39.461Z,23.42
2022-10-07T22:39:39.976Z,24.45
2022-10-07T22:44:44.987Z,24.60
2022-10-07T22:49:42.418Z,24.45
2022-10-07T22:54:41.374Z,26.75
2022-10-07T22:59:37.551Z,24.25
2022-10-07T23:04:35.712Z,21.48
2022-10-07T23:09:29.645Z,17.92
2022-10-07T23:14:25.313Z,20.77
2022-10-07T23:19:19.465Z,20.00
2022-10-07T23:24:12.950Z,19.17
2022-10-07T23:29:08.028Z,17.23
2022-10-07T23:34:02.715Z,18.58
2022-10-07T23:38:55.875Z,18.50
2022-10-07T23:43:50.963Z,17.95
2022-10-07T23:48:43.240Z,15.35
2022-10-07T23:53:36.722Z,20.27
2022-10-07T23:58:31.308Z,16.85
